createdAt,value
2022-09-20T00:00:01.659Z,1.27
2022-09-20T00:05:02.349Z,1.58
2022-09-20T00:10:03.005Z,1.90
2022-09-20T00:15:05.654Z,1.30
2022-09-20T00:20:06.929Z,0.73
2022-09-20T00:25:09.067Z,0.68
2022-09-20T00:30:13.187Z,0.63
2022-09-20T00:35:13.773Z,0.90
2022-09-20T00:40:16.541Z,1.20
2022-09-20T00:45:22.882Z,1.10
2022-09-20T00:50:33.716Z,1.55
2022-09-20T00:55:36.786Z,1.10
2022-09-20T01:00:39.320Z,1.10
2022-09-20T01:05:41.307Z,1.75
2022-09-20T01:10:42.607Z,1.70
2022-09-20T01:15:46.433Z,2.00
2022-09-20T01:20:49.298Z,1.85
2022-09-20T01:26:23.535Z,2.20
2022-09-20T01:31:29.401Z,1.90
2022-09-20T01:36:39.089Z,1.73
2022-09-20T01:41:45.038Z,1.95
2022-09-20T01:46:51.590Z,2.08
2022-09-20T01:52:17.951Z,1.75
2022-09-20T01:58:04.305Z,1.60
2022-09-20T02:03:32.999Z,1.70
2022-09-20T02:08:56.635Z,1.95
2022-09-20T02:14:24.590Z,1.73
2022-09-20T02:19:40.289Z,1.70
2022-09-20T02:24:47.873Z,1.50
2022-09-20T02:29:59.354Z,1.23
2022-09-20T02:35:24.462Z,1.48
2022-09-20T02:40:44.831Z,1.30
2022-09-20T02:45:52.037Z,1.65
2022-09-20T02:51:03.173Z,1.98
2022-09-20T02:56:12.708Z,1.85
2022-09-20T03:01:27.439Z,1.40
2022-09-20T03:06:38.043Z,1.65
2022-09-20T03:11:47.296Z,1.63
2022-09-20T03:17:06.509Z,2.80
2022-09-20T03:22:19.640Z,1.77
2022-09-20T03:27:30.920Z,2.25
2022-09-20T03:32:43.580Z,1.88
2022-09-20T03:37:56.282Z,1.73
2022-09-20T03:43:04.900Z,1.70
2022-09-20T03:48:37.442Z,2.00
2022-09-20T03:54:13.202Z,1.85
2022-09-20T03:59:26.653Z,1.88
2022-09-20T04:04:33.973Z,1.95
2022-09-20T04:09:56.392Z,2.08
2022-09-20T04:15:08.381Z,2.38
2022-09-20T04:20:21.196Z,2.63
2022-09-20T04:25:30.047Z,3.67
2022-09-20T04:30:37.545Z,3.17
2022-09-20T04:36:19.189Z,3.63
2022-09-20T04:41:43.801Z,4.55
2022-09-20T04:47:29.012Z,4.90
2022-09-20T04:52:58.384Z,4.70
2022-09-20T04:58:33.938Z,5.63
2022-09-20T05:04:04.580Z,5.10
2022-09-20T05:09:30.542Z,4.78
2022-09-20T05:14:48.226Z,4.95
2022-09-20T05:20:08.015Z,4.75
2022-09-20T05:25:51.550Z,4.45
2022-09-20T05:30:58.177Z,4.97
2022-09-20T05:36:09.325Z,5.00
2022-09-20T05:41:19.052Z,6.25
2022-09-20T05:46:36.062Z,5.50
2022-09-20T05:52:01.855Z,4.80
2022-09-20T05:57:17.107Z,6.00
2022-09-20T06:02:33.826Z,7.40
2022-09-20T06:07:53.583Z,5.95
2022-09-20T06:13:00.893Z,7.28
2022-09-20T06:18:15.180Z,7.00
2022-09-20T06:23:16.594Z,7.15
2022-09-20T06:28:19.675Z,7.28
2022-09-20T06:33:24.055Z,6.68
2022-09-20T06:38:55.686Z,6.50
2022-09-20T06:43:59.161Z,6.28
2022-09-20T06:49:01.492Z,6.47
2022-09-20T06:54:02.675Z,8.15
2022-09-20T06:59:03.709Z,4.43
2022-09-20T07:04:06.137Z,4.90
2022-09-20T07:09:07.521Z,6.18
2022-09-20T07:14:08.246Z,4.60
2022-09-20T07:19:10.489Z,4.53
2022-09-20T07:24:11.403Z,4.80
2022-09-20T07:29:12.189Z,5.22
2022-09-20T07:34:14.262Z,5.43
2022-09-20T07:39:14.973Z,6.80
2022-09-20T07:44:25.464Z,6.25
2022-09-20T07:49:29.945Z,7.72
2022-09-20T07:54:30.631Z,7.22
2022-09-20T07:59:31.295Z,8.45
2022-09-20T08:04:33.242Z,7.55
2022-09-20T08:09:33.940Z,7.75
2022-09-20T08:14:34.595Z,7.53
2022-09-20T08:19:39.972Z,8.85
2022-09-20T08:24:40.696Z,8.52
2022-09-20T08:29:41.372Z,8.52
2022-09-20T08:34:43.326Z,8.32
2022-09-20T08:39:59.637Z,9.18
2022-09-20T08:45:03.684Z,7.32
2022-09-20T08:50:09.986Z,6.75
2022-09-20T08:55:17.277Z,4.80
2022-09-20T09:00:20.145Z,4.82
2022-09-20T09:05:44.007Z,4.72
2022-09-20T09:10:51.315Z,4.38
2022-09-20T09:15:57.237Z,4.47
2022-09-20T09:21:00.703Z,3.55
2022-09-20T09:26:04.864Z,3.33
2022-09-20T09:31:23.684Z,3.20
2022-09-20T09:36:26.974Z,4.25
2022-09-20T09:41:35.332Z,4.63
2022-09-20T09:46:37.541Z,4.75
2022-09-20T09:51:42.425Z,4.22
2022-09-20T09:56:57.403Z,4.85
2022-09-20T10:02:13.104Z,4.47
2022-09-20T10:07:22.012Z,4.20
2022-09-20T10:12:39.234Z,3.53
2022-09-20T10:17:52.749Z,3.20
2022-09-20T10:23:39.261Z,2.63
2022-09-20T10:28:48.323Z,3.63
2022-09-20T10:34:01.375Z,2.13
2022-09-20T10:39:10.143Z,1.83
2022-09-20T10:44:23.440Z,1.90
2022-09-20T10:49:32.912Z,1.98
2022-09-20T10:54:49.233Z,2.60
2022-09-20T10:59:58.698Z,1.95
2022-09-20T11:05:19.363Z,2.78
2022-09-20T11:10:25.459Z,1.50
2022-09-20T11:15:33.537Z,2.10
2022-09-20T11:20:44.115Z,1.95
2022-09-20T11:25:51.722Z,1.77
2022-09-20T11:31:01.148Z,1.60
2022-09-20T11:36:04.845Z,1.75
2022-09-20T11:41:12.798Z,1.35
2022-09-20T11:46:16.137Z,1.30
2022-09-20T11:51:48.557Z,1.75
2022-09-20T11:56:53.867Z,1.80
2022-09-20T12:01:59.453Z,2.03
2022-09-20T12:07:08.370Z,2.13
2022-09-20T12:12:21.334Z,1.60
2022-09-20T12:17:59.483Z,1.75
2022-09-20T12:23:33.418Z,1.85
2022-09-20T12:28:37.736Z,1.00
2022-09-20T12:33:57.936Z,1.10
2022-09-20T12:39:06.170Z,1.25
2022-09-20T12:44:25.228Z,1.40
2022-09-20T12:49:58.791Z,1.85
2022-09-20T12:55:03.792Z,1.75
2022-09-20T13:00:34.768Z,1.85
2022-09-20T13:05:38.910Z,1.80
2022-09-20T13:10:43.445Z,1.30
2022-09-20T13:15:52.445Z,1.10
2022-09-20T13:20:53.931Z,1.42
2022-09-20T13:25:58.608Z,0.93
2022-09-20T13:31:25.049Z,1.10
2022-09-20T13:36:28.549Z,1.10
2022-09-20T13:41:32.581Z,1.00
2022-09-20T13:46:34.678Z,1.30
2022-09-20T13:51:35.655Z,1.45
2022-09-20T13:56:36.413Z,1.65
2022-09-20T14:01:39.528Z,0.70
2022-09-20T14:06:40.319Z,0.40
2022-09-20T14:11:41.381Z,0.40
2022-09-20T14:16:46.761Z,0.50
2022-09-20T14:21:48.601Z,0.98
2022-09-20T14:27:06.277Z,0.60
2022-09-20T14:32:18.352Z,0.90
2022-09-20T14:37:25.683Z,0.90
2022-09-20T14:42:32.202Z,0.80
2022-09-20T14:47:40.114Z,0.90
2022-09-20T14:52:43.822Z,0.63
2022-09-20T14:57:46.230Z,0.70
2022-09-20T15:02:48.667Z,0.40
2022-09-20T15:07:49.384Z,0.32
2022-09-20T15:12:50.040Z,0.65
2022-09-20T15:17:52.476Z,0.52
2022-09-20T15:22:53.158Z,0.43
2022-09-20T15:27:53.799Z,0.82
2022-09-20T15:32:58.567Z,0.57
2022-09-20T15:38:01.587Z,0.63
2022-09-20T15:43:02.217Z,0.85
2022-09-20T15:48:04.528Z,0.90
2022-09-20T15:53:05.642Z,0.85
2022-09-20T15:58:06.452Z,0.85
2022-09-20T16:03:08.493Z,0.90
2022-09-20T16:08:09.170Z,1.00
2022-09-20T16:13:09.844Z,1.10
2022-09-20T16:18:29.647Z,0.93
2022-09-20T16:23:30.259Z,1.42
2022-09-20T16:28:30.876Z,1.08
2022-09-20T16:33:33.953Z,1.35
2022-09-20T16:38:34.986Z,1.20
2022-09-20T16:43:37.927Z,1.40
2022-09-20T16:48:40.831Z,1.40
2022-09-20T16:53:41.499Z,2.00
2022-09-20T16:58:43.340Z,2.10
2022-09-20T17:03:46.046Z,1.95
2022-09-20T17:08:48.670Z,1.38
2022-09-20T17:13:51.377Z,1.65
2022-09-20T17:18:58.235Z,0.90
2022-09-20T17:24:00.616Z,0.90
2022-09-20T17:29:03.073Z,1.00
2022-09-20T17:34:07.714Z,0.90
2022-09-20T17:39:10.919Z,0.98
2022-09-20T17:44:12.274Z,0.90
2022-09-20T17:49:15.922Z,1.00
2022-09-20T17:54:17.137Z,0.90
2022-09-20T17:59:19.515Z,0.90
2022-09-20T18:04:24.449Z,0.88
2022-09-20T18:09:27.649Z,0.80
2022-09-20T18:14:31.216Z,1.10
2022-09-20T18:19:34.289Z,1.35
2022-09-20T18:24:35.024Z,1.02
2022-09-20T18:29:37.554Z,1.10
2022-09-20T18:34:40.314Z,1.40
2022-09-20T18:39:41.039Z,1.23
2022-09-20T18:44:43.182Z,1.40
2022-09-20T18:49:45.138Z,1.23
2022-09-20T18:54:46.139Z,1.50
2022-09-20T18:59:54.358Z,1.60
2022-09-20T19:05:18.600Z,1.95
2022-09-20T19:10:28.094Z,1.98
2022-09-20T19:15:48.550Z,2.03
2022-09-20T19:20:59.014Z,2.20
2022-09-20T19:26:10.241Z,1.83
2022-09-20T19:31:21.223Z,2.30
2022-09-20T19:36:24.473Z,2.42
2022-09-20T19:41:39.698Z,2.70
2022-09-20T19:46:52.225Z,2.50
2022-09-20T19:51:55.903Z,2.78
2022-09-20T19:56:59.466Z,2.60
2022-09-20T20:02:00.893Z,2.63
2022-09-20T20:07:08.921Z,3.10
2022-09-20T20:12:15.529Z,3.05
2022-09-20T20:17:33.645Z,3.50
2022-09-20T20:23:06.405Z,3.03
2022-09-20T20:28:07.727Z,3.42
2022-09-20T20:33:08.340Z,3.28
2022-09-20T20:38:11.592Z,4.53
2022-09-20T20:43:12.183Z,3.97
2022-09-20T20:48:12.908Z,3.55
2022-09-20T20:53:14.905Z,3.63
2022-09-20T20:58:15.591Z,3.67
2022-09-20T21:03:16.190Z,4.07
2022-09-20T21:08:18.198Z,4.07
2022-09-20T21:13:18.808Z,4.15
2022-09-20T21:18:19.534Z,5.43
2022-09-20T21:23:21.492Z,5.10
2022-09-20T21:28:22.277Z,5.15
2022-09-20T21:33:23.047Z,5.80
2022-09-20T21:38:25.069Z,5.43
2022-09-20T21:43:26.702Z,6.22
2022-09-20T21:48:28.158Z,5.95
2022-09-20T21:53:30.708Z,6.45
2022-09-20T21:58:31.472Z,6.07
2022-09-20T22:03:36.699Z,5.72
2022-09-20T22:08:40.251Z,5.50
2022-09-20T22:13:42.203Z,5.47
2022-09-20T22:18:44.709Z,5.50
2022-09-20T22:23:50.144Z,5.50
2022-09-20T22:28:51.686Z,5.68
2022-09-20T22:33:54.258Z,5.53
2022-09-20T22:38:56.465Z,5.38
2022-09-20T22:43:57.214Z,5.35
2022-09-20T22:48:57.957Z,5.03
2022-09-20T22:54:00.418Z,5.60
2022-09-20T22:59:04.731Z,5.18
2022-09-20T23:04:08.163Z,6.43
2022-09-20T23:09:12.491Z,5.45
2022-09-20T23:14:15.416Z,6.13
2022-09-20T23:19:16.193Z,5.63
2022-09-20T23:24:18.184Z,5.85
2022-09-20T23:29:18.790Z,5.43
2022-09-20T23:34:19.413Z,5.20
2022-09-20T23:39:21.336Z,5.75
2022-09-20T23:44:22.021Z,4.90
2022-09-20T23:49:22.610Z,5.32
2022-09-20T23:54:24.573Z,5.18
2022-09-20T23:59:25.176Z,5.65
